createdAt,value
2019-03-27T00:00:12.520Z,18.73
2019-03-27T00:02:38.915Z,19.00
2019-03-27T00:05:05.531Z,22.47
2019-03-27T00:07:31.920Z,20.73
2019-03-27T00:09:58.251Z,16.80
2019-03-27T00:12:24.581Z,21.70
2019-03-27T00:14:50.831Z,20.17
2019-03-27T00:17:17.241Z,20.53
2019-03-27T00:19:43.569Z,16.73
2019-03-27T00:22:10.004Z,23.73
2019-03-27T00:24:36.335Z,15.20
2019-03-27T00:27:02.810Z,21.30
2019-03-27T00:29:29.200Z,21.70
2019-03-27T00:31:55.743Z,20.30
2019-03-27T00:34:21.948Z,20.30
2019-03-27T00:36:48.240Z,20.17
2019-03-27T00:39:14.545Z,21.77
2019-03-27T00:41:40.953Z,13.80
2019-03-27T00:44:07.253Z,18.47
2019-03-27T00:46:33.614Z,19.67
2019-03-27T00:48:59.944Z,20.40
2019-03-27T00:51:26.156Z,18.87
2019-03-27T00:53:52.502Z,19.33
2019-03-27T00:56:18.776Z,14.00
2019-03-27T00:58:45.163Z,17.57
2019-03-27T01:01:12.217Z,20.27
2019-03-27T01:03:38.450Z,18.80
2019-03-27T01:06:05.244Z,13.93
2019-03-27T01:08:31.714Z,16.50
2019-03-27T01:10:58.053Z,16.97
2019-03-27T01:13:24.717Z,13.33
2019-03-27T01:15:51.002Z,16.30
2019-03-27T01:18:17.343Z,16.43
2019-03-27T01:20:43.672Z,20.20
2019-03-27T01:23:10.001Z,19.47
2019-03-27T01:25:36.234Z,14.33
2019-03-27T01:28:02.524Z,16.83
2019-03-27T01:30:28.834Z,19.33
2019-03-27T01:32:55.447Z,21.07
2019-03-27T01:35:21.858Z,21.47
2019-03-27T01:37:48.151Z,17.03
2019-03-27T01:40:14.843Z,21.67
2019-03-27T01:42:41.282Z,18.13
2019-03-27T01:45:08.203Z,16.30
2019-03-27T01:47:36.200Z,16.07
2019-03-27T01:50:05.254Z,18.27
2019-03-27T01:52:31.821Z,17.30
2019-03-27T01:54:58.093Z,16.00
2019-03-27T01:57:24.387Z,17.67
2019-03-27T01:59:50.798Z,17.73
2019-03-27T02:02:17.119Z,19.90
2019-03-27T02:04:43.556Z,19.63
2019-03-27T02:07:11.469Z,21.67
2019-03-27T02:09:37.763Z,23.60
2019-03-27T02:12:04.290Z,16.07
2019-03-27T02:14:30.621Z,14.30
2019-03-27T02:16:57.001Z,17.87
2019-03-27T02:19:24.815Z,18.30
2019-03-27T02:21:51.146Z,16.13
2019-03-27T02:24:17.413Z,17.20
2019-03-27T02:26:43.806Z,14.87
2019-03-27T02:29:10.095Z,17.77
2019-03-27T02:31:36.479Z,15.47
2019-03-27T02:34:03.005Z,16.10
2019-03-27T02:36:29.337Z,17.57
2019-03-27T02:38:55.623Z,15.53
2019-03-27T02:41:21.994Z,16.40
2019-03-27T02:43:48.327Z,16.93
2019-03-27T02:46:24.388Z,19.07
2019-03-27T02:48:42.784Z,14.47
2019-03-27T02:51:09.304Z,16.70
2019-03-27T02:53:35.597Z,14.87
2019-03-27T02:56:02.024Z,15.97
2019-03-27T02:58:48.176Z,21.53
2019-03-27T03:01:14.874Z,16.77
2019-03-27T03:03:41.162Z,16.30
2019-03-27T03:06:07.523Z,20.27
2019-03-27T03:08:34.066Z,21.73
2019-03-27T03:11:00.384Z,16.33
2019-03-27T03:13:26.697Z,17.03
2019-03-27T03:15:52.951Z,16.63
2019-03-27T03:18:19.273Z,17.80
2019-03-27T03:20:45.716Z,19.47
2019-03-27T03:23:12.062Z,18.03
2019-03-27T03:25:38.424Z,20.43
2019-03-27T03:28:04.797Z,15.93
2019-03-27T03:30:32.973Z,17.10
2019-03-27T03:32:59.174Z,20.00
2019-03-27T03:35:25.529Z,19.67
2019-03-27T03:37:51.750Z,18.90
2019-03-27T03:40:18.231Z,19.90
2019-03-27T03:42:44.449Z,18.67
2019-03-27T03:45:30.600Z,19.30
2019-03-27T03:47:56.944Z,22.33
2019-03-27T03:50:30.985Z,16.30
2019-03-27T03:52:57.708Z,17.03
2019-03-27T03:55:24.535Z,15.00
2019-03-27T03:57:51.226Z,17.47
2019-03-27T04:00:17.609Z,14.60
2019-03-27T04:02:44.444Z,19.30
2019-03-27T04:05:14.381Z,16.83
2019-03-27T04:07:40.798Z,15.87
2019-03-27T04:10:07.336Z,18.30
2019-03-27T04:12:33.790Z,18.17
2019-03-27T04:15:00.031Z,20.60
2019-03-27T04:17:26.425Z,20.37
2019-03-27T04:19:52.755Z,19.33
2019-03-27T04:22:19.494Z,17.77
2019-03-27T04:24:45.758Z,19.83
2019-03-27T04:27:12.041Z,20.37
2019-03-27T04:29:38.356Z,15.60
2019-03-27T04:32:04.717Z,20.13
2019-03-27T04:34:30.972Z,22.90
2019-03-27T04:36:57.374Z,20.40
2019-03-27T04:39:23.701Z,18.10
2019-03-27T04:41:49.995Z,14.63
2019-03-27T04:44:16.364Z,16.47
2019-03-27T04:46:42.909Z,13.27
2019-03-27T04:49:09.161Z,17.93
2019-03-27T04:51:35.561Z,18.57
2019-03-27T04:54:01.992Z,18.43
2019-03-27T04:56:28.324Z,12.00
2019-03-27T04:58:54.654Z,19.47
2019-03-27T05:01:20.910Z,13.47
2019-03-27T05:03:47.834Z,17.83
2019-03-27T05:06:14.259Z,21.80
2019-03-27T05:08:40.597Z,15.63
2019-03-27T05:11:06.880Z,18.30
2019-03-27T05:13:33.258Z,17.40
2019-03-27T05:15:59.581Z,16.73
2019-03-27T05:18:25.993Z,17.47
2019-03-27T05:20:52.346Z,19.70
2019-03-27T05:23:19.055Z,15.40
2019-03-27T05:25:45.412Z,16.87
2019-03-27T05:28:12.097Z,14.93
2019-03-27T05:30:38.408Z,14.63
2019-03-27T05:33:04.704Z,15.57
2019-03-27T05:35:31.042Z,14.23
2019-03-27T05:37:57.337Z,19.17
2019-03-27T05:40:23.657Z,17.37
2019-03-27T05:42:59.965Z,15.70
2019-03-27T05:45:18.103Z,18.57
2019-03-27T05:47:44.435Z,18.23
2019-03-27T05:50:10.758Z,20.17
2019-03-27T05:52:37.094Z,19.07
2019-03-27T05:55:04.958Z,13.90
2019-03-27T05:57:31.293Z,15.07
2019-03-27T05:59:57.620Z,13.63
2019-03-27T06:02:23.866Z,18.80
2019-03-27T06:04:50.158Z,20.27
2019-03-27T06:07:16.443Z,12.63
2019-03-27T06:09:42.757Z,17.97
2019-03-27T06:12:10.949Z,16.70
2019-03-27T06:14:37.245Z,16.90
2019-03-27T06:17:03.571Z,16.43
2019-03-27T06:19:29.839Z,19.33
2019-03-27T06:21:56.455Z,16.97
2019-03-27T06:24:22.768Z,20.10
2019-03-27T06:26:49.125Z,13.13
2019-03-27T06:29:15.969Z,19.80
2019-03-27T06:31:42.577Z,16.13
2019-03-27T06:34:08.901Z,15.07
2019-03-27T06:36:35.238Z,13.77
2019-03-27T06:39:01.791Z,14.93
2019-03-27T06:41:28.145Z,13.50
2019-03-27T06:43:54.536Z,17.70
2019-03-27T06:46:20.968Z,14.27
2019-03-27T06:48:47.317Z,12.50
2019-03-27T06:51:13.736Z,16.80
2019-03-27T06:53:40.063Z,14.87
2019-03-27T06:56:06.494Z,18.53
2019-03-27T06:58:34.754Z,14.63
2019-03-27T07:01:02.598Z,15.33
2019-03-27T07:03:28.881Z,15.10
2019-03-27T07:05:55.252Z,15.60
2019-03-27T07:08:21.637Z,17.63
2019-03-27T07:10:47.858Z,20.00
2019-03-27T07:13:14.872Z,19.53
2019-03-27T07:15:41.242Z,12.57
2019-03-27T07:18:07.571Z,13.77
2019-03-27T07:20:33.938Z,14.53
2019-03-27T07:23:00.327Z,17.93
2019-03-27T07:25:26.669Z,16.53
2019-03-27T07:27:52.988Z,14.63
2019-03-27T07:30:19.423Z,18.33
2019-03-27T07:32:47.640Z,14.23
2019-03-27T07:35:14.955Z,20.90
2019-03-27T07:37:41.237Z,12.73
2019-03-27T07:40:07.711Z,14.53
2019-03-27T07:42:33.931Z,12.83
2019-03-27T07:45:00.381Z,18.23
2019-03-27T07:47:26.874Z,13.00
2019-03-27T07:49:53.441Z,14.53
2019-03-27T07:52:20.095Z,14.57
2019-03-27T07:54:46.409Z,18.43
2019-03-27T07:57:12.833Z,13.20
2019-03-27T07:59:39.174Z,15.07
2019-03-27T08:02:05.504Z,12.87
2019-03-27T08:04:51.600Z,14.63
2019-03-27T08:07:26.819Z,15.33
2019-03-27T08:09:46.410Z,16.73
2019-03-27T08:12:12.740Z,17.57
2019-03-27T08:14:38.996Z,13.57
2019-03-27T08:17:05.403Z,14.10
2019-03-27T08:19:31.698Z,11.47
2019-03-27T08:21:58.093Z,11.93
2019-03-27T08:24:24.388Z,15.93
2019-03-27T08:26:50.658Z,15.13
2019-03-27T08:29:16.983Z,12.60
2019-03-27T08:31:43.387Z,13.03
2019-03-27T08:34:09.709Z,13.23
2019-03-27T08:36:36.043Z,11.53
2019-03-27T08:39:04.857Z,11.87
2019-03-27T08:41:31.140Z,12.60
2019-03-27T08:43:57.489Z,10.93
2019-03-27T08:46:24.145Z,14.53
2019-03-27T08:48:50.560Z,14.57
2019-03-27T08:51:16.992Z,12.77
2019-03-27T08:53:43.221Z,11.43
2019-03-27T08:56:09.652Z,12.67
2019-03-27T08:58:55.812Z,9.27
2019-03-27T09:01:22.178Z,11.13
2019-03-27T09:03:48.362Z,8.20
2019-03-27T09:06:14.721Z,10.47
2019-03-27T09:08:41.017Z,8.90
2019-03-27T09:11:07.397Z,6.93
2019-03-27T09:13:33.701Z,9.30
2019-03-27T09:16:06.074Z,9.23
2019-03-27T09:18:33.057Z,10.90
2019-03-27T09:20:59.286Z,5.90
2019-03-27T09:23:25.596Z,8.77
2019-03-27T09:25:52.350Z,7.80
2019-03-27T09:28:18.671Z,7.00
2019-03-27T09:30:44.961Z,4.83
2019-03-27T09:33:11.333Z,7.53
2019-03-27T09:35:37.665Z,6.50
2019-03-27T09:38:04.102Z,5.70
2019-03-27T09:40:30.373Z,6.60
2019-03-27T09:42:56.757Z,6.67
2019-03-27T09:45:23.087Z,8.17
2019-03-27T09:47:49.748Z,7.60
2019-03-27T09:50:16.366Z,9.03
2019-03-27T09:52:43.019Z,7.93
2019-03-27T09:55:09.433Z,8.63
2019-03-27T09:57:35.766Z,5.83
2019-03-27T10:00:07.220Z,7.47
2019-03-27T10:02:33.614Z,5.87
2019-03-27T10:05:00.078Z,7.43
2019-03-27T10:07:26.511Z,6.93
2019-03-27T10:09:52.886Z,6.27
2019-03-27T10:12:19.284Z,8.37
2019-03-27T10:14:47.532Z,8.13
2019-03-27T10:17:13.823Z,8.70
2019-03-27T10:19:40.110Z,7.60
2019-03-27T10:22:06.442Z,8.00
2019-03-27T10:24:32.877Z,7.50
2019-03-27T10:26:59.613Z,8.83
2019-03-27T10:29:25.949Z,4.30
2019-03-27T10:31:52.275Z,4.93
2019-03-27T10:34:18.605Z,4.43
2019-03-27T10:36:44.925Z,5.97
2019-03-27T10:39:11.220Z,5.27
2019-03-27T10:41:37.595Z,6.83
2019-03-27T10:44:04.028Z,6.33
2019-03-27T10:46:30.517Z,10.27
2019-03-27T10:48:56.848Z,6.93
2019-03-27T10:51:23.135Z,6.83
2019-03-27T10:53:49.451Z,6.40
2019-03-27T10:56:17.456Z,7.23
2019-03-27T10:58:43.761Z,7.67
2019-03-27T11:01:10.085Z,5.13
2019-03-27T11:03:36.410Z,4.47
2019-03-27T11:06:02.782Z,7.43
2019-03-27T11:08:29.173Z,7.37
2019-03-27T11:10:55.503Z,5.63
2019-03-27T11:13:21.939Z,4.73
2019-03-27T11:15:48.375Z,6.53
2019-03-27T11:18:14.703Z,3.83
2019-03-27T11:20:41.441Z,4.97
2019-03-27T11:23:07.775Z,4.87
2019-03-27T11:25:34.101Z,4.83
2019-03-27T11:28:00.534Z,3.93
2019-03-27T11:30:35.896Z,4.33
2019-03-27T11:33:02.426Z,5.10
2019-03-27T11:35:28.774Z,4.37
2019-03-27T11:37:55.484Z,6.50
2019-03-27T11:40:21.810Z,6.20
2019-03-27T11:42:48.091Z,3.50
2019-03-27T11:45:14.860Z,5.27
2019-03-27T11:47:41.211Z,5.00
2019-03-27T11:50:08.771Z,8.20
2019-03-27T11:52:35.102Z,4.50
2019-03-27T11:55:01.452Z,4.77
2019-03-27T11:57:27.771Z,5.13
2019-03-27T11:59:54.498Z,5.53
2019-03-27T12:02:20.835Z,7.83
2019-03-27T12:04:47.486Z,6.60
2019-03-27T12:07:13.822Z,6.63
2019-03-27T12:09:40.129Z,5.20
2019-03-27T12:12:06.563Z,5.87
2019-03-27T12:14:32.996Z,5.33
2019-03-27T12:16:59.222Z,8.20
2019-03-27T12:19:25.553Z,4.67
2019-03-27T12:21:54.682Z,5.47
2019-03-27T12:24:20.060Z,5.37
2019-03-27T12:26:46.295Z,4.47
2019-03-27T12:29:12.615Z,4.77
2019-03-27T12:31:38.946Z,6.90
2019-03-27T12:34:05.598Z,6.17
2019-03-27T12:36:32.016Z,7.37
2019-03-27T12:38:58.551Z,4.47
2019-03-27T12:41:24.878Z,6.60
2019-03-27T12:43:51.214Z,4.37
2019-03-27T12:46:23.988Z,6.63
2019-03-27T12:48:50.426Z,3.70
2019-03-27T12:51:17.073Z,5.83
2019-03-27T12:53:43.475Z,6.47
2019-03-27T12:56:09.883Z,3.40
2019-03-27T12:58:36.268Z,5.77
2019-03-27T13:01:02.796Z,6.10
2019-03-27T13:03:29.230Z,7.47
2019-03-27T13:05:55.466Z,5.87
2019-03-27T13:08:21.747Z,5.37
2019-03-27T13:10:48.117Z,6.47
2019-03-27T13:13:14.373Z,4.37
2019-03-27T13:15:42.378Z,4.27
2019-03-27T13:18:10.520Z,8.00
2019-03-27T13:20:37.050Z,4.30
2019-03-27T13:23:03.456Z,5.50
2019-03-27T13:25:29.648Z,7.07
2019-03-27T13:27:56.020Z,6.40
2019-03-27T13:30:22.334Z,4.93
2019-03-27T13:32:48.635Z,7.73
2019-03-27T13:35:15.107Z,4.60
2019-03-27T13:37:41.437Z,7.17
2019-03-27T13:40:09.749Z,4.40
2019-03-27T13:42:36.193Z,6.13
2019-03-27T13:45:04.843Z,5.83
2019-03-27T13:47:31.263Z,5.93
2019-03-27T13:49:57.594Z,7.43
2019-03-27T13:52:23.926Z,6.90
2019-03-27T13:54:50.254Z,5.10
2019-03-27T13:57:16.805Z,6.90
2019-03-27T13:59:43.221Z,6.03
2019-03-27T14:02:09.552Z,6.73
2019-03-27T14:04:35.810Z,4.63
2019-03-27T14:07:02.110Z,6.40
2019-03-27T14:09:28.437Z,4.67
2019-03-27T14:11:54.771Z,5.73
2019-03-27T14:14:21.102Z,6.83
2019-03-27T14:16:47.329Z,5.73
2019-03-27T14:19:13.761Z,6.17
2019-03-27T14:21:53.514Z,4.67
2019-03-27T14:24:08.266Z,6.87
2019-03-27T14:26:44.962Z,7.33
2019-03-27T14:29:02.810Z,6.07
2019-03-27T14:31:29.103Z,5.23
2019-03-27T14:33:55.533Z,8.53
2019-03-27T14:36:21.863Z,6.50
2019-03-27T14:38:48.194Z,6.97
2019-03-27T14:41:14.456Z,6.20
2019-03-27T14:43:40.773Z,6.47
2019-03-27T14:46:07.081Z,6.33
2019-03-27T14:48:33.410Z,6.97
2019-03-27T14:50:59.744Z,7.17
2019-03-27T14:53:25.995Z,5.87
2019-03-27T14:55:53.219Z,5.97
2019-03-27T14:58:19.551Z,5.13
2019-03-27T15:00:46.212Z,8.30
2019-03-27T15:03:12.522Z,6.40
2019-03-27T15:05:38.933Z,4.80
2019-03-27T15:08:05.487Z,6.97
2019-03-27T15:10:31.921Z,5.37
2019-03-27T15:12:58.356Z,6.17
2019-03-27T15:15:24.891Z,5.63
2019-03-27T15:17:51.127Z,4.37
2019-03-27T15:20:17.449Z,5.27
2019-03-27T15:22:43.780Z,6.10
2019-03-27T15:25:11.437Z,5.07
2019-03-27T15:27:37.768Z,4.53
2019-03-27T15:30:07.886Z,5.37
2019-03-27T15:32:34.326Z,6.97
2019-03-27T15:35:00.649Z,4.63
2019-03-27T15:37:26.897Z,5.40
2019-03-27T15:39:53.207Z,8.03
2019-03-27T15:42:19.538Z,6.40
2019-03-27T15:44:45.868Z,5.27
2019-03-27T15:47:12.304Z,6.97
2019-03-27T15:49:38.838Z,6.60
2019-03-27T15:52:05.166Z,11.20
2019-03-27T15:54:33.422Z,5.27
2019-03-27T15:56:59.634Z,6.70
2019-03-27T15:59:26.004Z,4.60
2019-03-27T16:01:52.310Z,7.57
2019-03-27T16:04:18.581Z,7.57
2019-03-27T16:06:44.991Z,6.23
2019-03-27T16:09:13.183Z,5.20
2019-03-27T16:11:39.497Z,7.37
2019-03-27T16:14:05.797Z,5.87
2019-03-27T16:16:32.159Z,9.17
2019-03-27T16:18:58.414Z,6.13
2019-03-27T16:21:24.819Z,8.27
2019-03-27T16:24:00.698Z,7.13
2019-03-27T16:26:19.320Z,7.47
2019-03-27T16:28:45.651Z,8.17
2019-03-27T16:31:11.980Z,7.37
2019-03-27T16:33:38.315Z,9.53
2019-03-27T16:36:04.846Z,8.17
2019-03-27T16:38:31.177Z,9.50
2019-03-27T16:40:57.506Z,9.53
2019-03-27T16:43:23.735Z,7.93
2019-03-27T16:45:50.271Z,10.73
2019-03-27T16:48:16.605Z,7.67
2019-03-27T16:50:43.239Z,8.17
2019-03-27T16:53:12.639Z,8.77
2019-03-27T16:55:38.971Z,8.07
2019-03-27T16:58:05.626Z,8.17
2019-03-27T17:00:31.937Z,8.30
2019-03-27T17:02:58.268Z,8.90
2019-03-27T17:05:24.598Z,8.80
2019-03-27T17:07:50.928Z,7.37
2019-03-27T17:10:17.295Z,9.87
2019-03-27T17:12:43.691Z,9.00
2019-03-27T17:15:10.533Z,7.83
2019-03-27T17:17:36.863Z,9.53
2019-03-27T17:20:10.229Z,8.10
2019-03-27T17:22:36.812Z,6.77
2019-03-27T17:25:06.116Z,9.27
2019-03-27T17:27:32.630Z,7.87
2019-03-27T17:29:59.064Z,8.33
2019-03-27T17:32:25.402Z,12.10
2019-03-27T17:34:52.125Z,10.87
2019-03-27T17:37:18.872Z,9.30
2019-03-27T17:39:47.139Z,8.83
2019-03-27T17:42:13.379Z,9.93
2019-03-27T17:44:39.648Z,7.60
2019-03-27T17:47:06.038Z,8.67
2019-03-27T17:49:32.470Z,8.63
2019-03-27T17:51:59.015Z,13.20
2019-03-27T17:54:25.540Z,6.47
2019-03-27T17:56:51.769Z,8.90
2019-03-27T17:59:19.903Z,10.13
2019-03-27T18:01:46.478Z,8.10
2019-03-27T18:04:12.687Z,7.20
2019-03-27T18:06:39.138Z,8.27
2019-03-27T18:09:06.494Z,8.47
2019-03-27T18:11:32.714Z,9.00
2019-03-27T18:13:58.948Z,9.70
2019-03-27T18:16:25.280Z,7.67
2019-03-27T18:18:51.609Z,7.83
2019-03-27T18:21:21.110Z,7.83
2019-03-27T18:23:46.757Z,13.07
2019-03-27T18:26:13.336Z,10.13
2019-03-27T18:28:41.337Z,9.47
2019-03-27T18:31:07.667Z,11.60
2019-03-27T18:33:34.325Z,8.90
2019-03-27T18:36:00.739Z,11.77
2019-03-27T18:38:27.475Z,10.47
2019-03-27T18:40:53.805Z,8.80
2019-03-27T18:43:20.135Z,10.07
2019-03-27T18:45:46.427Z,10.50
2019-03-27T18:48:12.721Z,10.43
2019-03-27T18:50:40.157Z,11.33
2019-03-27T18:53:06.479Z,11.03
2019-03-27T18:55:32.811Z,8.53
2019-03-27T18:58:00.686Z,9.83
2019-03-27T19:00:27.243Z,7.80
2019-03-27T19:02:55.255Z,9.43
2019-03-27T19:05:21.508Z,8.13
2019-03-27T19:07:47.794Z,9.80
2019-03-27T19:10:14.278Z,10.03
2019-03-27T19:12:40.502Z,9.77
2019-03-27T19:15:07.768Z,10.50
2019-03-27T19:17:34.089Z,9.13
2019-03-27T19:20:00.423Z,8.77
2019-03-27T19:22:26.746Z,10.53
2019-03-27T19:24:53.078Z,9.83
2019-03-27T19:27:19.537Z,9.37
2019-03-27T19:29:45.841Z,10.10
2019-03-27T19:32:14.813Z,9.13
2019-03-27T19:34:42.807Z,9.97
2019-03-27T19:37:09.137Z,10.13
2019-03-27T19:39:35.437Z,10.80
2019-03-27T19:42:02.122Z,10.90
2019-03-27T19:44:28.533Z,8.87
2019-03-27T19:46:54.847Z,11.77
2019-03-27T19:49:21.169Z,9.57
2019-03-27T19:51:47.522Z,10.00
2019-03-27T19:54:26.457Z,10.20
2019-03-27T19:56:41.926Z,11.03
2019-03-27T19:59:08.298Z,9.50
2019-03-27T20:01:34.690Z,10.30
2019-03-27T20:04:01.008Z,10.10
2019-03-27T20:06:27.348Z,8.97
2019-03-27T20:08:56.580Z,8.70
2019-03-27T20:11:23.655Z,8.30
2019-03-27T20:13:50.115Z,7.07
2019-03-27T20:16:16.662Z,8.30
2019-03-27T20:18:43.098Z,6.60
2019-03-27T20:21:09.657Z,9.43
2019-03-27T20:23:35.971Z,8.57
2019-03-27T20:26:02.616Z,10.70
2019-03-27T20:28:29.031Z,6.73
2019-03-27T20:30:55.265Z,10.63
2019-03-27T20:33:21.533Z,7.60
2019-03-27T20:35:47.922Z,6.87
2019-03-27T20:38:14.259Z,6.97
2019-03-27T20:40:40.583Z,9.00
2019-03-27T20:43:06.914Z,7.60
2019-03-27T20:45:33.162Z,10.47
2019-03-27T20:47:59.449Z,11.13
2019-03-27T20:50:27.144Z,6.83
2019-03-27T20:52:53.783Z,7.53
2019-03-27T20:55:30.024Z,7.07
2019-03-27T20:57:48.274Z,9.33
2019-03-27T21:00:15.116Z,6.13
2019-03-27T21:02:41.548Z,8.17
2019-03-27T21:05:12.619Z,7.67
2019-03-27T21:07:38.920Z,7.83
2019-03-27T21:10:07.098Z,7.07
2019-03-27T21:12:33.823Z,8.30
2019-03-27T21:15:00.367Z,10.43
2019-03-27T21:17:26.807Z,8.90
2019-03-27T21:19:53.240Z,8.70
2019-03-27T21:22:20.390Z,8.13
2019-03-27T21:24:46.780Z,7.93
2019-03-27T21:27:19.703Z,9.33
2019-03-27T21:29:46.364Z,7.83
2019-03-27T21:32:12.775Z,9.27
2019-03-27T21:34:39.212Z,10.30
2019-03-27T21:37:05.744Z,11.07
2019-03-27T21:39:32.549Z,8.83
2019-03-27T21:41:58.937Z,7.43
2019-03-27T21:44:25.476Z,8.97
2019-03-27T21:46:51.985Z,8.07
2019-03-27T21:49:18.522Z,7.47
2019-03-27T21:51:45.056Z,8.60
2019-03-27T21:54:11.593Z,10.13
2019-03-27T21:56:38.536Z,9.30
2019-03-27T21:59:04.974Z,9.77
2019-03-27T22:01:31.715Z,10.00
2019-03-27T22:03:58.245Z,10.47
2019-03-27T22:06:24.700Z,10.00
2019-03-27T22:08:51.212Z,8.00
2019-03-27T22:11:18.468Z,12.17
2019-03-27T22:13:45.102Z,8.20
2019-03-27T22:16:31.290Z,8.63
2019-03-27T22:18:57.831Z,8.63
2019-03-27T22:21:24.264Z,9.43
2019-03-27T22:23:50.698Z,12.30
2019-03-27T22:26:17.177Z,8.53
2019-03-27T22:28:43.562Z,10.30
2019-03-27T22:31:10.020Z,9.90
2019-03-27T22:33:36.368Z,8.80
2019-03-27T22:36:02.862Z,8.57
2019-03-27T22:38:29.408Z,8.60
2019-03-27T22:40:55.933Z,10.43
2019-03-27T22:43:22.671Z,9.30
2019-03-27T22:45:49.308Z,10.00
2019-03-27T22:48:15.843Z,9.70
2019-03-27T22:50:42.379Z,9.70
2019-03-27T22:53:08.844Z,9.80
2019-03-27T22:55:48.620Z,8.93
2019-03-27T22:58:04.134Z,8.80
2019-03-27T23:00:35.481Z,7.90
2019-03-27T23:03:02.019Z,9.70
2019-03-27T23:05:30.172Z,7.23
2019-03-27T23:07:56.729Z,7.30
2019-03-27T23:10:23.262Z,8.60
2019-03-27T23:12:49.695Z,8.07
2019-03-27T23:15:16.061Z,7.37
2019-03-27T23:17:42.672Z,8.17
2019-03-27T23:20:09.510Z,8.63
2019-03-27T23:22:36.145Z,7.23
2019-03-27T23:25:03.913Z,8.10
2019-03-27T23:27:30.447Z,7.27
2019-03-27T23:29:58.046Z,7.73
2019-03-27T23:32:24.536Z,8.20
2019-03-27T23:34:51.070Z,7.60
2019-03-27T23:37:17.540Z,8.13
2019-03-27T23:39:44.050Z,9.17
2019-03-27T23:42:10.882Z,8.50
2019-03-27T23:44:37.722Z,8.43
2019-03-27T23:47:04.371Z,8.03
2019-03-27T23:49:31.410Z,11.90
2019-03-27T23:51:58.045Z,10.40
2019-03-27T23:54:24.580Z,8.43
2019-03-27T23:57:04.206Z,9.50
2019-03-27T23:59:31.065Z,10.33
